createdAt,value
2018-04-18T04:09:42.699Z,0
2018-04-18T04:10:08.247Z,0
2018-04-18T04:10:33.617Z,0
2018-04-18T04:10:59.095Z,0
2018-04-18T04:11:24.561Z,0
2018-04-18T04:11:50.159Z,0
2018-04-18T04:12:15.783Z,0
2018-04-18T04:12:41.201Z,0
2018-04-18T04:13:06.612Z,0
2018-04-18T04:13:32.099Z,0
2018-04-18T04:13:57.744Z,0
2018-04-18T04:14:23.259Z,0
2018-04-18T04:14:48.663Z,0
2018-04-18T04:15:14.277Z,0
2018-04-18T04:15:39.842Z,0
2018-04-18T04:16:05.303Z,0
2018-04-18T04:16:30.951Z,0
2018-04-18T04:16:56.383Z,0
2018-04-18T04:17:21.868Z,0
2018-04-18T04:17:47.472Z,0
2018-04-18T04:18:13.287Z,0
2018-04-18T04:18:38.726Z,0
2018-04-18T04:19:04.326Z,0
2018-04-18T04:19:30.463Z,0
2018-04-18T04:19:56.093Z,0
2018-04-18T04:20:21.766Z,0
2018-04-18T04:20:47.421Z,0
2018-04-18T04:21:12.884Z,0
2018-04-18T04:21:38.353Z,5
2018-04-18T04:22:03.886Z,5
2018-04-18T04:22:29.309Z,5
2018-04-18T04:22:54.827Z,5
2018-04-18T04:23:20.287Z,5
2018-04-18T04:23:45.906Z,5
2018-04-18T04:24:11.391Z,5
2018-04-18T04:24:36.858Z,5
2018-04-18T04:25:02.364Z,5
2018-04-18T04:25:28.075Z,5
2018-04-18T04:25:53.578Z,5
2018-04-18T04:26:19.097Z,5
2018-04-18T04:26:44.700Z,5
2018-04-18T04:27:10.138Z,5
2018-04-18T04:27:35.689Z,5
2018-04-18T04:28:01.287Z,5
2018-04-18T04:28:26.702Z,5
2018-04-18T04:28:53.194Z,5
2018-04-18T04:29:18.606Z,5
2018-04-18T04:29:44.298Z,10
2018-04-18T04:30:10.089Z,10
2018-04-18T04:30:35.548Z,10
2018-04-18T04:31:01.387Z,10
2018-04-18T04:31:27.081Z,10
2018-04-18T04:31:52.843Z,10
2018-04-18T04:32:18.834Z,10
2018-04-18T04:32:44.353Z,10
2018-04-18T04:33:09.919Z,10
2018-04-18T04:33:35.361Z,10
2018-04-18T04:34:00.868Z,10
2018-04-18T04:34:26.342Z,10
2018-04-18T04:34:52.085Z,10
2018-04-18T04:35:17.606Z,15
2018-04-18T04:35:43.075Z,15
2018-04-18T04:36:08.657Z,15
2018-04-18T04:36:34.129Z,15
2018-04-18T04:36:59.629Z,15
2018-04-18T04:37:25.030Z,15
2018-04-18T04:37:50.588Z,15
2018-04-18T04:38:16.012Z,15
2018-04-18T04:38:41.495Z,15
2018-04-18T04:39:07.056Z,15
2018-04-18T04:39:32.487Z,15
2018-04-18T04:39:58.054Z,20
2018-04-18T04:40:23.551Z,20
2018-04-18T04:40:49.012Z,20
2018-04-18T04:41:14.522Z,20
2018-04-18T04:41:40.039Z,20
2018-04-18T04:42:05.473Z,20
2018-04-18T04:42:31.072Z,20
2018-04-18T04:42:56.489Z,20
2018-04-18T04:43:22.002Z,20
2018-04-18T04:43:47.566Z,20
2018-04-18T04:44:13.116Z,25
2018-04-18T04:44:38.570Z,25
2018-04-18T04:45:04.197Z,25
2018-04-18T04:45:29.681Z,25
2018-04-18T04:45:55.219Z,25
2018-04-18T04:46:20.880Z,25
2018-04-18T04:46:46.314Z,25
2018-04-18T04:47:11.794Z,25
2018-04-18T04:47:37.368Z,25
2018-04-18T04:48:02.827Z,25
2018-04-18T04:48:28.452Z,30
2018-04-18T04:48:54.228Z,30
2018-04-18T04:49:19.698Z,30
2018-04-18T04:49:45.198Z,30
2018-04-18T04:50:10.660Z,30
2018-04-18T04:50:36.245Z,30
2018-04-18T04:51:01.797Z,30
2018-04-18T04:51:27.265Z,30
2018-04-18T04:51:52.873Z,30
2018-04-18T04:52:18.461Z,35
2018-04-18T04:52:43.892Z,35
2018-04-18T04:53:09.376Z,35
2018-04-18T04:53:34.821Z,35
2018-04-18T04:54:00.303Z,35
2018-04-18T04:54:25.900Z,35
2018-04-18T04:54:51.448Z,35
2018-04-18T04:55:16.880Z,35
2018-04-18T04:55:42.532Z,40
2018-04-18T04:56:08.131Z,40
2018-04-18T04:56:33.567Z,40
2018-04-18T04:56:59.110Z,40
2018-04-18T04:57:24.727Z,40
2018-04-18T04:57:50.129Z,40
2018-04-18T04:58:15.641Z,40
2018-04-18T04:58:41.057Z,40
2018-04-18T04:59:06.533Z,45
2018-04-18T04:59:32.187Z,45
2018-04-18T04:59:57.696Z,45
2018-04-18T05:00:23.869Z,45
2018-04-18T05:00:50.543Z,45
2018-04-18T05:01:17.107Z,45
2018-04-18T05:01:43.219Z,45
2018-04-18T05:02:14.957Z,45
2018-04-18T05:02:42.665Z,45
2018-04-18T05:03:10.779Z,50
2018-04-18T05:03:38.432Z,50
2018-04-18T05:04:05.508Z,50
2018-04-18T05:05:32.448Z,50
2018-04-18T05:05:58.028Z,50
2018-04-18T05:06:23.718Z,50
2018-04-18T05:06:49.255Z,55
2018-04-18T05:07:14.657Z,55
2018-04-18T05:07:40.163Z,55
2018-04-18T05:09:11.455Z,55
2018-04-18T05:09:37.076Z,55
2018-04-18T05:10:02.586Z,55
2018-04-18T05:10:28.197Z,60
2018-04-18T05:10:53.683Z,60
2018-04-18T05:11:19.159Z,60
2018-04-18T05:11:45.613Z,60
2018-04-18T05:12:11.173Z,60
2018-04-18T05:12:37.982Z,60
2018-04-18T05:13:03.607Z,60
2018-04-18T05:13:28.954Z,60
2018-04-18T05:13:54.433Z,65
2018-04-18T05:14:19.929Z,65
2018-04-18T05:14:45.387Z,65
2018-04-18T05:15:11.000Z,65
2018-04-18T05:15:36.358Z,65
2018-04-18T05:16:01.811Z,65
2018-04-18T05:16:27.409Z,65
2018-04-18T05:16:52.839Z,70
2018-04-18T05:17:18.414Z,70
2018-04-18T05:17:43.886Z,70
2018-04-18T05:18:09.388Z,70
2018-04-18T05:18:34.839Z,75
2018-04-18T05:19:00.331Z,75
2018-04-18T05:19:25.878Z,75
2018-04-18T05:19:51.388Z,75
2018-04-18T05:20:16.980Z,75
2018-04-18T05:20:42.437Z,75
2018-04-18T05:21:07.954Z,75
2018-04-18T05:21:33.389Z,75
2018-04-18T05:21:58.843Z,75
2018-04-18T05:22:24.382Z,75
2018-04-18T05:22:49.928Z,75
2018-04-18T05:23:15.570Z,80
2018-04-18T05:23:40.971Z,75
2018-04-18T05:24:06.575Z,80
2018-04-18T05:24:32.036Z,80
2018-04-18T05:24:57.521Z,80
2018-04-18T05:25:23.018Z,80
2018-04-18T05:25:48.476Z,80
2018-04-18T05:26:13.949Z,80
2018-04-18T05:26:39.417Z,80
2018-04-18T05:27:04.848Z,85
2018-04-18T05:27:30.352Z,90
2018-04-18T05:27:55.743Z,90
2018-04-18T05:28:21.271Z,90
2018-04-18T05:28:46.736Z,95
2018-04-18T05:29:12.339Z,95
2018-04-18T05:29:37.822Z,105
2018-04-18T05:30:03.253Z,100
2018-04-18T05:30:28.748Z,100
2018-04-18T05:30:54.429Z,105
2018-04-18T05:31:19.904Z,105
2018-04-18T05:31:45.290Z,100
2018-04-18T05:32:10.878Z,105
2018-04-18T05:32:36.464Z,105
2018-04-18T05:33:01.927Z,105
2018-04-18T05:33:27.342Z,105
2018-04-18T05:33:52.881Z,110
2018-04-18T05:34:18.368Z,110
2018-04-18T05:34:43.784Z,110
2018-04-18T05:35:09.257Z,110
2018-04-18T05:35:34.823Z,110
2018-04-18T05:36:00.223Z,115
2018-04-18T05:36:25.769Z,115
2018-04-18T05:36:51.196Z,115
2018-04-18T05:37:16.742Z,115
2018-04-18T05:37:42.177Z,115
2018-04-18T05:38:07.720Z,115
2018-04-18T05:38:33.268Z,115
2018-04-18T05:38:58.665Z,120
2018-04-18T05:39:24.220Z,120
2018-04-18T05:39:49.718Z,120
2018-04-18T05:40:15.217Z,120
2018-04-18T05:40:40.677Z,120
2018-04-18T05:41:06.113Z,120
2018-04-18T05:41:31.568Z,125
2018-04-18T05:41:57.060Z,125
2018-04-18T05:42:22.552Z,125
2018-04-18T05:42:47.997Z,125
2018-04-18T05:43:13.560Z,125
2018-04-18T05:43:39.066Z,125
2018-04-18T05:44:04.482Z,125
2018-04-18T05:44:30.031Z,130
2018-04-18T05:44:55.450Z,130
2018-04-18T05:45:20.943Z,130
2018-04-18T05:45:46.403Z,130
2018-04-18T05:46:11.946Z,130
2018-04-18T05:46:37.457Z,140
2018-04-18T05:47:02.933Z,140
2018-04-18T05:47:28.382Z,140
2018-04-18T05:47:53.869Z,140
2018-04-18T05:48:19.321Z,140
2018-04-18T05:48:44.817Z,140
2018-04-18T05:49:10.315Z,140
2018-04-18T05:49:35.803Z,140
2018-04-18T05:50:01.458Z,140
2018-04-18T05:50:26.920Z,140
2018-04-18T05:50:52.438Z,140
2018-04-18T05:51:18.011Z,140
2018-04-18T05:51:43.509Z,140
2018-04-18T05:52:09.154Z,145
2018-04-18T05:52:34.609Z,145
2018-04-18T05:53:00.060Z,145
2018-04-18T05:53:25.717Z,145
2018-04-18T05:53:51.369Z,145
2018-04-18T05:54:16.935Z,150
2018-04-18T05:54:42.594Z,150
2018-04-18T05:55:08.047Z,150
2018-04-18T05:55:33.817Z,150
2018-04-18T05:55:59.452Z,150
2018-04-18T05:56:25.049Z,150
2018-04-18T05:56:50.529Z,150
2018-04-18T05:57:16.125Z,155
2018-04-18T05:57:41.599Z,155
2018-04-18T05:58:07.119Z,155
2018-04-18T05:58:32.712Z,155
2018-04-18T05:58:58.241Z,155
2018-04-18T05:59:23.773Z,155
2018-04-18T05:59:49.387Z,155
2018-04-18T06:00:14.937Z,160
2018-04-18T06:00:40.394Z,160
2018-04-18T06:01:05.984Z,160
2018-04-18T06:01:31.623Z,165
2018-04-18T06:01:57.167Z,160
2018-04-18T06:02:22.754Z,160
2018-04-18T06:02:48.344Z,160
2018-04-18T06:03:13.811Z,160
2018-04-18T06:03:39.600Z,160
2018-04-18T06:04:05.218Z,160
2018-04-18T06:04:30.891Z,160
2018-04-18T06:04:56.431Z,160
2018-04-18T06:05:22.126Z,160
2018-04-18T06:05:47.618Z,160
2018-04-18T06:06:13.416Z,160
2018-04-18T06:06:38.923Z,160
2018-04-18T06:07:04.461Z,160
2018-04-18T06:07:30.109Z,160
2018-04-18T06:07:55.710Z,160
2018-04-18T06:08:21.187Z,160
2018-04-18T06:08:46.731Z,160
2018-04-18T06:09:12.729Z,160
2018-04-18T06:09:38.345Z,160
2018-04-18T06:10:04.061Z,165
2018-04-18T06:10:29.756Z,170
2018-04-18T06:10:55.428Z,165
2018-04-18T06:11:21.171Z,165
2018-04-18T06:11:46.528Z,165
2018-04-18T06:12:12.037Z,165
2018-04-18T06:12:37.557Z,165
2018-04-18T06:13:03.153Z,165
2018-04-18T06:13:28.821Z,165
2018-04-18T06:13:54.370Z,165
2018-04-18T06:14:19.988Z,165
2018-04-18T06:14:45.598Z,165
2018-04-18T06:15:11.043Z,170
2018-04-18T06:15:36.991Z,170
2018-04-18T06:16:02.492Z,170
2018-04-18T06:16:28.043Z,170
2018-04-18T06:16:53.685Z,170
2018-04-18T06:17:19.219Z,170
2018-04-18T06:17:44.656Z,170
2018-04-18T06:18:10.187Z,170
2018-04-18T06:18:35.651Z,170
2018-04-18T06:19:01.286Z,170
2018-04-18T06:19:26.712Z,170
2018-04-18T06:19:52.278Z,170
2018-04-18T06:20:17.778Z,170
2018-04-18T06:20:43.366Z,170
2018-04-18T06:21:08.968Z,170
2018-04-18T06:21:34.555Z,175
2018-04-18T06:22:00.045Z,175
2018-04-18T06:22:25.694Z,175
2018-04-18T06:22:51.119Z,175
2018-04-18T06:23:16.555Z,180
2018-04-18T06:23:42.329Z,175
2018-04-18T06:24:07.778Z,180
2018-04-18T06:24:33.386Z,175
2018-04-18T06:24:58.921Z,175
2018-04-18T06:25:24.431Z,175
2018-04-18T06:25:50.037Z,175
2018-04-18T06:26:15.711Z,175
2018-04-18T06:26:41.158Z,175
2018-04-18T06:27:06.691Z,180
2018-04-18T06:27:32.221Z,180
2018-04-18T06:27:57.862Z,180
2018-04-18T06:28:23.231Z,180
2018-04-18T06:28:48.758Z,180
2018-04-18T06:29:14.263Z,180
2018-04-18T06:29:40.026Z,185
2018-04-18T06:30:05.757Z,185
2018-04-18T06:30:31.154Z,185
2018-04-18T06:30:56.616Z,190
2018-04-18T06:31:22.145Z,190
2018-04-18T06:31:47.549Z,195
2018-04-18T06:32:13.133Z,195
2018-04-18T06:32:38.617Z,195
2018-04-18T06:33:04.103Z,195
2018-04-18T06:33:29.671Z,195
2018-04-18T06:33:55.081Z,200
2018-04-18T06:34:20.745Z,205
2018-04-18T06:34:46.267Z,210
2018-04-18T06:35:11.795Z,210
2018-04-18T06:35:37.363Z,235
2018-04-18T06:36:02.873Z,325
2018-04-18T06:36:28.335Z,425
2018-04-18T06:36:53.954Z,545
2018-04-18T06:37:19.429Z,650
2018-04-18T06:37:44.952Z,740
2018-04-18T06:38:10.542Z,785
2018-04-18T06:38:36.028Z,795
2018-04-18T06:39:01.559Z,780
2018-04-18T06:39:27.060Z,770
2018-04-18T06:39:52.653Z,760
2018-04-18T06:40:18.100Z,765
2018-04-18T06:40:43.649Z,765
2018-04-18T06:41:09.232Z,755
2018-04-18T06:41:34.834Z,750
2018-04-18T06:42:00.245Z,740
2018-04-18T06:42:25.715Z,735
2018-04-18T06:42:51.186Z,740
2018-04-18T06:43:16.767Z,745
2018-04-18T06:43:42.250Z,760
2018-04-18T06:44:07.847Z,770
2018-04-18T06:44:33.342Z,790
2018-04-18T06:44:58.819Z,805
2018-04-18T06:45:24.470Z,815
2018-04-18T06:45:50.006Z,805
2018-04-18T06:46:15.421Z,790
2018-04-18T06:46:40.981Z,770
2018-04-18T06:47:06.510Z,730
2018-04-18T06:47:32.008Z,690
2018-04-18T06:47:57.541Z,635
2018-04-18T06:48:23.046Z,565
2018-04-18T06:48:48.608Z,490
2018-04-18T06:49:14.125Z,415
2018-04-18T07:12:18.891Z,200
2018-04-18T07:17:46.113Z,200
2018-04-18T07:18:22.093Z,200
2018-04-18T07:18:52.293Z,200
2018-04-18T07:19:20.620Z,200
2018-04-18T07:19:50.232Z,200
2018-04-18T07:20:16.176Z,200
2018-04-18T07:20:46.276Z,200
2018-04-18T07:21:24.256Z,200
2018-04-18T07:21:56.411Z,200
2018-04-18T07:22:21.912Z,200
2018-04-18T07:22:47.491Z,200
2018-04-18T07:23:17.226Z,200
2018-04-18T07:23:44.210Z,200
2018-04-18T07:24:18.152Z,200
2018-04-18T07:24:43.917Z,200
2018-04-18T07:25:09.437Z,200
2018-04-18T07:25:35.212Z,200
2018-04-18T07:26:02.820Z,200
2018-04-18T07:27:35.184Z,200
2018-04-18T07:28:04.855Z,200
2018-04-18T07:28:43.595Z,200
2018-04-18T07:29:09.145Z,200
2018-04-18T07:29:37.195Z,200
2018-04-18T07:30:03.321Z,200
2018-04-18T07:30:36.520Z,195
2018-04-18T07:31:01.177Z,195
2018-04-18T07:31:34.940Z,195
2018-04-18T07:32:00.532Z,195
2018-04-18T07:32:26.415Z,195
2018-04-18T07:32:52.108Z,195
2018-04-18T07:33:20.063Z,195
2018-04-18T07:34:54.737Z,195
2018-04-18T07:35:22.918Z,195
2018-04-18T07:35:48.346Z,195
2018-04-18T07:36:13.825Z,195
2018-04-18T07:36:39.480Z,195
2018-04-18T07:37:04.929Z,195
2018-04-18T07:37:30.510Z,195
2018-04-18T07:37:55.931Z,195
2018-04-18T07:38:21.743Z,195
2018-04-18T07:38:47.297Z,195
2018-04-18T07:39:12.722Z,205
2018-04-18T07:39:38.219Z,200
2018-04-18T07:40:03.851Z,200
2018-04-18T07:40:29.388Z,200
2018-04-18T07:40:54.844Z,200
2018-04-18T07:41:20.365Z,200
2018-04-18T07:41:46.009Z,200
2018-04-18T07:42:11.506Z,200
2018-04-18T07:42:37.111Z,200
2018-04-18T07:43:02.664Z,200
2018-04-18T07:43:28.172Z,200
2018-04-18T07:43:53.590Z,200
2018-04-18T07:44:19.157Z,200
2018-04-18T07:44:44.676Z,200
2018-04-18T07:45:10.071Z,200
2018-04-18T07:45:35.648Z,200
2018-04-18T07:46:01.192Z,200
2018-04-18T07:46:26.641Z,200
2018-04-18T07:46:52.325Z,200
2018-04-18T07:47:17.897Z,200
2018-04-18T07:47:43.379Z,200
2018-04-18T07:48:08.967Z,200
2018-04-18T07:48:34.480Z,200
2018-04-18T07:49:00.144Z,200
2018-04-18T07:49:25.595Z,200
2018-04-18T07:49:51.239Z,200
2018-04-18T07:50:16.781Z,200
2018-04-18T07:50:42.414Z,200
2018-04-18T07:51:07.971Z,200
2018-04-18T07:51:33.556Z,200
2018-04-18T07:51:59.035Z,200
2018-04-18T07:52:24.546Z,200
2018-04-18T07:52:50.045Z,200
2018-04-18T07:53:15.571Z,200
2018-04-18T07:53:41.074Z,200
2018-04-18T07:54:06.594Z,200
2018-04-18T07:54:32.172Z,200
2018-04-18T07:54:57.921Z,200
2018-04-18T07:55:23.455Z,200
2018-04-18T07:55:48.945Z,200
2018-04-18T07:56:14.485Z,200
2018-04-18T07:56:40.100Z,195
2018-04-18T07:57:05.581Z,195
2018-04-18T07:57:31.165Z,195
2018-04-18T07:57:56.567Z,195
2018-04-18T07:58:21.984Z,195
2018-04-18T07:58:47.632Z,195
2018-04-18T07:59:13.274Z,195
2018-04-18T07:59:38.741Z,195
2018-04-18T08:00:04.381Z,195
2018-04-18T08:00:29.835Z,195
2018-04-18T08:00:55.316Z,195
2018-04-18T08:01:20.894Z,195
2018-04-18T08:01:46.407Z,195
2018-04-18T08:02:12.066Z,195
2018-04-18T08:02:37.829Z,195
2018-04-18T08:03:03.369Z,195
2018-04-18T08:03:28.914Z,195
2018-04-18T08:03:54.431Z,195
2018-04-18T08:04:20.008Z,195
2018-04-18T08:04:45.521Z,195
2018-04-18T08:05:11.024Z,195
2018-04-18T08:05:36.609Z,195
2018-04-18T08:06:02.233Z,195
2018-04-18T08:06:27.743Z,195
2018-04-18T08:06:53.310Z,195
2018-04-18T08:07:18.792Z,195
2018-04-18T08:07:44.293Z,195
2018-04-18T08:08:09.801Z,195
2018-04-18T08:08:35.361Z,195
2018-04-18T08:09:00.984Z,190
2018-04-18T08:09:26.487Z,190
2018-04-18T08:09:52.109Z,190
2018-04-18T08:10:17.591Z,190
2018-04-18T08:10:43.216Z,190
2018-04-18T08:11:08.724Z,190
2018-04-18T08:11:34.516Z,190
2018-04-18T08:11:59.953Z,190
2018-04-18T08:12:25.537Z,190
2018-04-18T08:12:51.094Z,190
2018-04-18T08:13:16.508Z,190
2018-04-18T08:13:41.993Z,190
2018-04-18T08:14:07.493Z,195
2018-04-18T08:14:33.005Z,190
2018-04-18T08:14:58.627Z,190
2018-04-18T08:15:24.296Z,190
2018-04-18T08:15:49.816Z,190
2018-04-18T08:16:15.433Z,195
2018-04-18T08:16:40.988Z,190
2018-04-18T08:17:06.571Z,190
2018-04-18T08:17:32.194Z,190
2018-04-18T08:17:57.902Z,190
2018-04-18T08:18:23.298Z,190
2018-04-18T08:18:48.908Z,190
2018-04-18T08:19:14.396Z,190
2018-04-18T08:19:40.078Z,190
2018-04-18T08:20:05.589Z,190
2018-04-18T08:20:31.248Z,190
2018-04-18T08:20:56.901Z,190
2018-04-18T08:21:22.463Z,190
2018-04-18T08:21:48.018Z,190
2018-04-18T08:22:13.523Z,190
2018-04-18T08:22:38.996Z,190
2018-04-18T08:23:04.414Z,190
2018-04-18T08:23:30.069Z,190
2018-04-18T08:23:55.478Z,190
2018-04-18T08:24:21.076Z,190
2018-04-18T08:24:46.677Z,190
2018-04-18T08:25:12.352Z,190
2018-04-18T08:25:37.857Z,190
2018-04-18T08:26:03.391Z,190
2018-04-18T08:26:28.954Z,190
2018-04-18T08:26:54.583Z,190
2018-04-18T08:27:20.056Z,185
2018-04-18T08:27:45.525Z,185
2018-04-18T08:28:11.104Z,185
2018-04-18T08:28:36.587Z,185
2018-04-18T08:29:02.077Z,185
2018-04-18T08:29:27.595Z,185
2018-04-18T08:29:53.076Z,185
2018-04-18T08:30:18.541Z,185
2018-04-18T08:30:44.213Z,185
2018-04-18T08:31:09.784Z,185
2018-04-18T08:31:35.260Z,185
2018-04-18T08:32:00.747Z,185
2018-04-18T08:32:26.436Z,185
2018-04-18T08:32:52.032Z,185
2018-04-18T08:33:17.416Z,185
2018-04-18T08:33:42.957Z,185
2018-04-18T08:34:08.595Z,185
2018-04-18T08:34:34.093Z,190
2018-04-18T08:34:59.546Z,190
2018-04-18T08:35:25.082Z,190
2018-04-18T08:35:50.647Z,190
2018-04-18T08:36:16.211Z,190
2018-04-18T08:36:41.767Z,190
2018-04-18T08:37:07.289Z,190
2018-04-18T08:37:32.969Z,190
2018-04-18T08:37:58.569Z,190
2018-04-18T08:38:24.113Z,190
2018-04-18T08:38:49.549Z,190
2018-04-18T08:39:15.051Z,200
2018-04-18T08:39:40.698Z,195
2018-04-18T08:40:06.121Z,190
2018-04-18T08:40:31.556Z,190
2018-04-18T08:40:57.143Z,190
2018-04-18T08:41:22.936Z,190
2018-04-18T08:41:48.495Z,190
2018-04-18T08:42:14.092Z,190
2018-04-18T08:42:39.562Z,190
2018-04-18T08:43:05.117Z,190
2018-04-18T08:43:30.579Z,190
2018-04-18T08:43:56.015Z,190
2018-04-18T08:44:21.508Z,190
2018-04-18T08:44:47.025Z,190
2018-04-18T08:45:12.456Z,190
2018-04-18T08:45:38.027Z,190
2018-04-18T08:46:03.510Z,190
2018-04-18T08:46:29.019Z,190
2018-04-18T08:46:54.473Z,190
2018-04-18T08:47:20.073Z,190
2018-04-18T08:47:45.747Z,190
2018-04-18T08:48:11.239Z,190
2018-04-18T08:48:36.915Z,190
2018-04-18T08:49:02.394Z,190
2018-04-18T08:49:27.831Z,190
2018-04-18T08:49:53.365Z,185
2018-04-18T08:50:18.898Z,190
2018-04-18T08:50:44.374Z,190
2018-04-18T08:51:09.886Z,190
2018-04-18T08:51:35.438Z,190
2018-04-18T08:52:01.191Z,195
2018-04-18T08:52:26.692Z,190
2018-04-18T08:52:52.187Z,190
2018-04-18T08:53:17.699Z,190
2018-04-18T08:53:43.198Z,190
2018-04-18T08:54:08.884Z,190
2018-04-18T08:54:34.469Z,190
2018-04-18T08:54:59.791Z,185
2018-04-18T08:55:25.338Z,195
2018-04-18T08:55:50.890Z,190
2018-04-18T08:56:16.512Z,185
2018-04-18T08:56:41.985Z,185
2018-04-18T08:57:07.484Z,185
2018-04-18T08:57:33.150Z,185
2018-04-18T08:57:58.792Z,185
2018-04-18T08:58:24.280Z,185
2018-04-18T08:58:49.902Z,185
2018-04-18T08:59:15.378Z,185
2018-04-18T08:59:40.861Z,185
2018-04-18T09:00:06.408Z,185
2018-04-18T09:00:32.005Z,185
2018-04-18T09:00:57.463Z,185
2018-04-18T09:01:22.873Z,185
2018-04-18T09:01:48.485Z,185
2018-04-18T09:02:14.038Z,185
2018-04-18T09:02:39.533Z,185
2018-04-18T09:03:04.991Z,185
2018-04-18T09:03:30.577Z,185
2018-04-18T09:03:56.055Z,185
2018-04-18T09:04:21.645Z,185
2018-04-18T09:04:47.253Z,180
2018-04-18T09:05:12.852Z,180
2018-04-18T09:05:38.276Z,180
2018-04-18T09:06:03.730Z,180
2018-04-18T09:06:29.361Z,180
2018-04-18T09:06:54.862Z,180
2018-04-18T09:07:20.371Z,180
2018-04-18T09:07:45.904Z,180
2018-04-18T09:08:11.397Z,180
2018-04-18T09:08:37.047Z,180
2018-04-18T09:09:02.593Z,180
2018-04-18T09:09:28.091Z,185
2018-04-18T09:09:53.505Z,180
2018-04-18T09:10:19.004Z,185
2018-04-18T09:10:44.590Z,185
2018-04-18T09:11:10.121Z,185
2018-04-18T09:11:35.634Z,185
2018-04-18T09:12:01.173Z,185
2018-04-18T09:12:26.707Z,185
2018-04-18T09:12:52.373Z,180
2018-04-18T09:13:17.915Z,180
2018-04-18T09:13:43.377Z,180
2018-04-18T09:14:08.825Z,180
2018-04-18T09:14:34.337Z,175
2018-04-18T09:14:59.954Z,175
2018-04-18T09:15:25.370Z,175
2018-04-18T09:15:50.890Z,175
2018-04-18T09:16:16.426Z,175
2018-04-18T09:16:42.007Z,170
2018-04-18T09:17:07.474Z,175
2018-04-18T09:17:33.020Z,170
2018-04-18T09:17:58.555Z,170
2018-04-18T09:18:24.210Z,170
2018-04-18T09:18:49.701Z,175
2018-04-18T09:19:15.190Z,175
2018-04-18T09:19:40.698Z,175
2018-04-18T09:20:06.149Z,175
2018-04-18T09:20:31.748Z,180
2018-04-18T09:20:57.268Z,175
2018-04-18T09:21:22.681Z,175
2018-04-18T09:21:48.206Z,175
2018-04-18T09:22:13.756Z,175
2018-04-18T09:22:39.272Z,175
2018-04-18T09:23:04.810Z,175
2018-04-18T09:23:30.410Z,175
2018-04-18T09:23:55.927Z,175
2018-04-18T09:24:21.355Z,175
2018-04-18T09:24:46.869Z,175
2018-04-18T09:25:12.464Z,175
2018-04-18T09:25:37.923Z,175
2018-04-18T09:26:03.653Z,175
2018-04-18T09:26:29.095Z,175
2018-04-18T09:26:54.768Z,170
2018-04-18T09:27:20.330Z,175
2018-04-18T09:27:45.855Z,175
2018-04-18T09:28:11.390Z,175
2018-04-18T09:28:36.838Z,175
2018-04-18T09:29:02.474Z,170
2018-04-18T09:29:27.928Z,170
2018-04-18T09:29:53.449Z,170
2018-04-18T09:30:19.002Z,170
2018-04-18T09:30:44.643Z,170
2018-04-18T09:31:10.083Z,170
2018-04-18T09:31:35.684Z,170
2018-04-18T09:32:01.351Z,170
2018-04-18T09:32:26.815Z,170
2018-04-18T09:32:52.305Z,170
2018-04-18T09:33:17.829Z,170
2018-04-18T09:33:43.400Z,170
2018-04-18T09:34:08.909Z,170
2018-04-18T09:34:34.375Z,170
2018-04-18T09:34:59.826Z,170
2018-04-18T09:35:25.334Z,170
2018-04-18T09:35:50.912Z,170
2018-04-18T09:36:16.367Z,170
2018-04-18T09:36:41.792Z,170
2018-04-18T09:37:07.346Z,170
2018-04-18T09:37:32.809Z,170
2018-04-18T09:37:58.347Z,170
2018-04-18T09:38:23.793Z,170
2018-04-18T09:38:49.308Z,175
2018-04-18T09:39:14.699Z,175
2018-04-18T09:39:40.214Z,175
2018-04-18T09:40:05.661Z,175
2018-04-18T09:40:31.102Z,175
2018-04-18T09:40:56.632Z,175
2018-04-18T09:41:22.099Z,175
2018-04-18T09:41:47.612Z,175
2018-04-18T09:42:13.033Z,175
2018-04-18T09:42:38.551Z,180
2018-04-18T09:43:04.021Z,175
2018-04-18T09:43:29.517Z,180
2018-04-18T09:43:54.957Z,180
2018-04-18T09:44:20.468Z,180
2018-04-18T09:44:45.921Z,180
2018-04-18T09:45:11.410Z,175
2018-04-18T09:45:36.947Z,175
2018-04-18T09:46:02.450Z,175
2018-04-18T09:46:27.948Z,175
2018-04-18T09:46:53.396Z,175
2018-04-18T09:47:18.903Z,175
2018-04-18T09:47:44.346Z,175
2018-04-18T09:48:09.810Z,175
2018-04-18T09:48:35.331Z,175
2018-04-18T09:49:00.796Z,175
2018-04-18T09:49:26.248Z,175
2018-04-18T09:49:51.778Z,175
2018-04-18T09:50:17.209Z,175
2018-04-18T09:50:42.696Z,175
2018-04-18T09:51:08.254Z,175
2018-04-18T09:51:33.670Z,175
2018-04-18T09:51:59.175Z,175
2018-04-18T09:52:24.611Z,175
2018-04-18T09:52:50.073Z,175
2018-04-18T09:53:15.555Z,175
2018-04-18T09:53:41.032Z,175
2018-04-18T09:54:06.503Z,175
2018-04-18T09:54:32.003Z,175
2018-04-18T09:54:57.565Z,175
2018-04-18T09:55:23.201Z,175
2018-04-18T09:55:48.719Z,175
2018-04-18T09:56:14.105Z,175
2018-04-18T09:56:39.644Z,175
2018-04-18T09:57:05.199Z,175
2018-04-18T09:57:30.679Z,175
2018-04-18T09:57:56.211Z,175
2018-04-18T09:58:21.683Z,175
2018-04-18T09:58:47.134Z,175
2018-04-18T09:59:12.700Z,170
2018-04-18T09:59:38.242Z,175
2018-04-18T10:00:03.778Z,175
2018-04-18T10:00:29.225Z,175
2018-04-18T10:00:54.726Z,170
2018-04-18T10:01:20.231Z,170
2018-04-18T10:01:45.969Z,170
2018-04-18T10:02:11.295Z,170
2018-04-18T10:02:36.857Z,165
2018-04-18T10:03:02.506Z,165
2018-04-18T10:03:27.962Z,165
2018-04-18T10:03:53.542Z,165
2018-04-18T10:04:18.991Z,165
2018-04-18T10:04:44.657Z,165
2018-04-18T10:05:10.149Z,160
2018-04-18T10:05:35.752Z,160
2018-04-18T10:06:01.311Z,160
2018-04-18T10:06:26.953Z,160
2018-04-18T10:06:52.399Z,160
2018-04-18T10:07:17.948Z,165
2018-04-18T10:07:43.470Z,160
2018-04-18T10:08:09.081Z,160
2018-04-18T10:08:34.485Z,160
2018-04-18T10:09:00.057Z,160
2018-04-18T10:09:25.584Z,160
2018-04-18T10:09:51.085Z,160
2018-04-18T10:10:16.701Z,160
2018-04-18T10:10:42.134Z,160
2018-04-18T10:11:07.664Z,160
2018-04-18T10:11:33.275Z,160
2018-04-18T10:11:58.766Z,160
2018-04-18T10:12:24.501Z,160
2018-04-18T10:12:50.034Z,160
2018-04-18T10:13:15.530Z,160
2018-04-18T10:13:41.066Z,160
2018-04-18T10:14:06.617Z,160
2018-04-18T10:14:32.133Z,155
2018-04-18T10:14:57.577Z,155
2018-04-18T10:15:23.163Z,155
2018-04-18T10:15:48.717Z,155
2018-04-18T10:16:14.273Z,150
2018-04-18T10:16:39.735Z,150
2018-04-18T10:17:05.225Z,150
2018-04-18T10:17:30.789Z,150
2018-04-18T10:17:56.310Z,150
2018-04-18T10:18:21.732Z,150
2018-04-18T10:18:47.247Z,150
2018-04-18T10:19:12.829Z,150
2018-04-18T10:19:38.371Z,150
2018-04-18T10:20:03.955Z,150
2018-04-18T10:20:29.510Z,150
2018-04-18T10:20:55.050Z,150
2018-04-18T10:21:20.554Z,150
2018-04-18T10:21:46.013Z,150
2018-04-18T10:22:11.607Z,150
2018-04-18T10:22:37.099Z,150
2018-04-18T10:23:02.615Z,150
2018-04-18T10:23:28.165Z,150
2018-04-18T10:23:53.655Z,150
2018-04-18T10:24:19.143Z,150
2018-04-18T10:24:44.741Z,150
2018-04-18T10:25:10.220Z,150
2018-04-18T10:25:35.716Z,150
2018-04-18T10:26:01.272Z,150
2018-04-18T10:26:26.834Z,150
2018-04-18T10:26:52.369Z,150
2018-04-18T10:27:17.912Z,150
2018-04-18T10:27:43.393Z,150
2018-04-18T10:28:09.013Z,150
2018-04-18T10:28:34.444Z,150
2018-04-18T10:28:59.962Z,150
2018-04-18T10:29:25.455Z,150
2018-04-18T10:29:51.013Z,150
2018-04-18T10:30:16.511Z,150
2018-04-18T10:30:42.068Z,150
2018-04-18T10:31:07.565Z,150
2018-04-18T10:31:33.105Z,150
2018-04-18T10:31:58.782Z,145
2018-04-18T10:32:24.195Z,150
2018-04-18T10:32:49.654Z,145
2018-04-18T10:33:15.294Z,145
2018-04-18T10:33:40.802Z,145
2018-04-18T10:34:06.259Z,145
2018-04-18T10:34:31.794Z,145
2018-04-18T10:34:57.273Z,145
2018-04-18T10:35:22.881Z,150
2018-04-18T10:35:48.418Z,145
2018-04-18T10:36:13.891Z,145
2018-04-18T10:36:39.407Z,145
2018-04-18T10:37:04.901Z,145
2018-04-18T10:37:30.377Z,145
2018-04-18T10:37:55.830Z,145
2018-04-18T10:38:21.381Z,145